Time;durP1;ratioP1;P1;durP2;ratioP2;P2;SDS_P1;SDS_P2;PMS_P1;PMS_P2;Temp;Humidity;BMP_temperature;BMP_pressure;BME280_temperature;BME280_humidity;BME280_pressure;Samples;Min_cycle;Max_cycle;Signal;HPM_P1;HPM_P2
2022/11/07 00:00:14;;;;;;;35.55;19.63;;;;;;;;;;6184054;28;20046;-77
2022/11/07 00:03:14;;;;;;;41.13;19.85;;;;;;;;;;6183447;28;20022;-77
2022/11/07 00:06:14;;;;;;;54.97;25.95;;;;;;;;;;6201094;28;20040;-78
2022/11/07 00:09:15;;;;;;;52.28;27.58;;;;;;;;;;6202330;28;20025;-78
2022/11/07 00:12:15;;;;;;;54.33;26.70;;;;;;;;;;6182788;28;20360;-77
2022/11/07 00:15:15;;;;;;;44.15;22.70;;;;;;;;;;6201521;28;20436;-77
2022/11/07 00:18:17;;;;;;;53.45;30.08;;;;;;;;;;6201112;28;20277;-79
2022/11/07 00:21:17;;;;;;;44.10;26.55;;;;;;;;;;6202241;28;20014;-77
2022/11/07 00:24:17;;;;;;;40.75;20.60;;;;;;;;;;6200423;28;20062;-78
2022/11/07 00:27:18;;;;;;;42.03;20.93;;;;;;;;;;6184141;28;20463;-76
2022/11/07 00:30:18;;;;;;;40.93;18.73;;;;;;;;;;6200725;28;20046;-78
2022/11/07 00:33:18;;;;;;;40.00;19.48;;;;;;;;;;6183070;28;20084;-77
2022/11/07 00:36:18;;;;;;;42.08;20.77;;;;;;;;;;6182266;28;20142;-76
2022/11/07 00:39:18;;;;;;;33.28;18.73;;;;;;;;;;6181566;28;20025;-77
2022/11/07 00:42:18;;;;;;;33.17;18.03;;;;;;;;;;6200205;28;20022;-77
2022/11/07 00:45:19;;;;;;;34.65;16.40;;;;;;;;;;6182469;28;20076;-78
2022/11/07 00:48:19;;;;;;;31.30;16.87;;;;;;;;;;6182390;28;20041;-76
2022/11/07 00:51:21;;;;;;;28.80;16.90;;;;;;;;;;6200973;28;20085;-77
2022/11/07 00:54:21;;;;;;;27.65;14.80;;;;;;;;;;6199584;28;20030;-77
2022/11/07 00:57:22;;;;;;;32.27;15.90;;;;;;;;;;6199970;28;20092;-77
2022/11/07 01:00:22;;;;;;;35.50;16.30;;;;;;;;;;6200185;28;20050;-77
2022/11/07 01:06:42;;;;;;;30.90;15.05;;;;;;;;;;6199932;28;20250;-77
2022/11/07 01:09:42;;;;;;;30.67;16.40;;;;;;;;;;6198866;28;20030;-77
2022/11/07 01:12:43;;;;;;;30.80;14.25;;;;;;;;;;6199641;28;20065;-78
2022/11/07 01:15:43;;;;;;;25.17;13.18;;;;;;;;;;6182405;28;20035;-76
2022/11/07 01:18:43;;;;;;;26.03;14.77;;;;;;;;;;6185841;28;20014;-78
2022/11/07 01:21:44;;;;;;;30.20;16.10;;;;;;;;;;6199930;28;20057;-77
2022/11/07 01:24:44;;;;;;;32.57;15.03;;;;;;;;;;6182430;28;20049;-77
2022/11/07 01:27:44;;;;;;;32.38;15.30;;;;;;;;;;6182196;28;20026;-77
2022/11/07 01:30:45;;;;;;;25.58;15.26;;;;;;;;;;6182361;28;20022;-77
2022/11/07 01:33:45;;;;;;;35.03;16.70;;;;;;;;;;6199388;28;20033;-77
2022/11/07 01:36:46;;;;;;;31.53;16.27;;;;;;;;;;6198535;28;20386;-78
2022/11/07 01:39:46;;;;;;;30.53;17.23;;;;;;;;;;6196854;28;20018;-77
2022/11/07 01:42:46;;;;;;;30.80;15.30;;;;;;;;;;6180681;28;20014;-78
2022/11/07 01:45:46;;;;;;;33.60;16.10;;;;;;;;;;6199518;28;20030;-76
2022/11/07 01:48:50;;;;;;;50.60;23.10;;;;;;;;;;6198644;28;20467;-77
2022/11/07 01:51:56;;;;;;;34.47;16.00;;;;;;;;;;6196068;28;20034;-76
2022/11/07 01:55:06;;;;;;;52.55;23.77;;;;;;;;;;6191839;28;20018;-78
2022/11/07 01:58:07;;;;;;;31.92;17.27;;;;;;;;;;6199489;28;20034;-77
2022/11/07 02:01:07;;;;;;;30.50;16.20;;;;;;;;;;6171955;28;20058;-77
2022/11/07 02:04:08;;;;;;;32.37;16.63;;;;;;;;;;6173096;28;20045;-77
2022/11/07 02:07:12;;;;;;;33.90;18.50;;;;;;;;;;6173196;28;20011;-77
2022/11/07 02:10:13;;;;;;;37.80;20.27;;;;;;;;;;6174335;28;20077;-77
2022/11/07 02:13:16;;;;;;;35.80;19.20;;;;;;;;;;6172614;28;20475;-77
2022/11/07 02:16:17;;;;;;;39.58;18.65;;;;;;;;;;6172453;28;20114;-78
2022/11/07 02:19:26;;;;;;;34.92;17.45;;;;;;;;;;6174327;28;20022;-77
2022/11/07 02:22:29;;;;;;;29.42;16.63;;;;;;;;;;6169338;28;20030;-77
2022/11/07 02:25:30;;;;;;;29.08;15.70;;;;;;;;;;6173493;28;20023;-77
2022/11/07 02:28:31;;;;;;;28.33;15.50;;;;;;;;;;6170785;28;20081;-77
2022/11/07 02:31:31;;;;;;;30.05;15.15;;;;;;;;;;6172280;28;20018;-77
2022/11/07 02:34:31;;;;;;;30.60;15.95;;;;;;;;;;6173326;28;20084;-77
2022/11/07 02:37:36;;;;;;;27.70;15.40;;;;;;;;;;6172924;28;20022;-77
2022/11/07 02:40:36;;;;;;;25.90;14.25;;;;;;;;;;6171668;28;20033;-77
2022/11/07 02:43:39;;;;;;;32.03;14.77;;;;;;;;;;6172405;28;20023;-77
2022/11/07 02:46:40;;;;;;;34.63;14.95;;;;;;;;;;6172694;28;20035;-77
2022/11/07 02:49:40;;;;;;;30.73;13.43;;;;;;;;;;6173030;28;20073;-77
2022/11/07 02:52:40;;;;;;;25.93;13.97;;;;;;;;;;6171793;28;20019;-77
2022/11/07 02:55:41;;;;;;;29.40;14.55;;;;;;;;;;6173467;28;20027;-77
2022/11/07 02:58:41;;;;;;;26.60;14.63;;;;;;;;;;6175629;28;20049;-77
2022/11/07 03:01:41;;;;;;;29.60;14.10;;;;;;;;;;6183603;28;20030;-77
2022/11/07 03:04:41;;;;;;;24.63;13.30;;;;;;;;;;6197106;28;20030;-77
2022/11/07 03:07:42;;;;;;;26.27;13.77;;;;;;;;;;6180875;28;20368;-77
2022/11/07 03:10:42;;;;;;;26.45;13.82;;;;;;;;;;6179289;28;20504;-77
2022/11/07 03:13:42;;;;;;;25.70;13.82;;;;;;;;;;6197712;28;20018;-77
2022/11/07 03:16:43;;;;;;;25.20;13.17;;;;;;;;;;6196033;28;20340;-77
2022/11/07 03:19:43;;;;;;;27.50;13.63;;;;;;;;;;6196948;28;20386;-77
2022/11/07 03:22:45;;;;;;;28.75;13.88;;;;;;;;;;6197424;28;20045;-77
2022/11/07 03:25:45;;;;;;;24.25;12.63;;;;;;;;;;6197813;28;20050;-76
2022/11/07 03:28:45;;;;;;;27.27;13.90;;;;;;;;;;6196946;28;20030;-77
2022/11/07 03:31:45;;;;;;;30.92;14.50;;;;;;;;;;6196275;28;20092;-77
2022/11/07 03:34:45;;;;;;;28.07;14.50;;;;;;;;;;6197826;28;20072;-76
2022/11/07 03:37:47;;;;;;;26.63;14.23;;;;;;;;;;6197566;28;20142;-77
2022/11/07 03:40:47;;;;;;;33.77;16.63;;;;;;;;;;6196862;28;20061;-77
2022/11/07 03:43:47;;;;;;;37.23;16.90;;;;;;;;;;6179698;28;20014;-77
2022/11/07 03:46:47;;;;;;;33.30;16.67;;;;;;;;;;6197086;28;20069;-77
2022/11/07 03:49:47;;;;;;;27.03;13.00;;;;;;;;;;6195006;28;20022;-77
2022/11/07 03:52:48;;;;;;;27.27;15.03;;;;;;;;;;6196784;28;20026;-78
2022/11/07 03:55:48;;;;;;;29.47;14.40;;;;;;;;;;6195774;28;20418;-78
2022/11/07 03:58:48;;;;;;;30.93;15.97;;;;;;;;;;6195006;28;20550;-78
2022/11/07 04:01:48;;;;;;;36.00;19.27;;;;;;;;;;6196850;28;20022;-76
2022/11/07 04:04:49;;;;;;;33.20;19.15;;;;;;;;;;6177743;28;20022;-77
2022/11/07 04:07:49;;;;;;;33.75;20.25;;;;;;;;;;6179102;28;20345;-77
2022/11/07 04:10:49;;;;;;;41.50;21.97;;;;;;;;;;6196994;28;20022;-77
2022/11/07 04:17:18;;;;;;;38.13;22.73;;;;;;;;;;6170071;28;20023;-77
2022/11/07 04:20:19;;;;;;;34.83;19.83;;;;;;;;;;6184002;28;20045;-77
2022/11/07 04:23:19;;;;;;;36.58;19.08;;;;;;;;;;6201080;28;20014;-77
2022/11/07 04:29:38;;;;;;;38.35;20.50;;;;;;;;;;6200423;28;20390;-77
2022/11/07 04:32:38;;;;;;;38.53;19.42;;;;;;;;;;6201668;28;20025;-78
2022/11/07 04:35:38;;;;;;;36.45;18.95;;;;;;;;;;6200396;28;20344;-77
2022/11/07 04:38:38;;;;;;;33.05;18.55;;;;;;;;;;6200512;28;20253;-77
2022/11/07 04:41:39;;;;;;;33.72;18.88;;;;;;;;;;6181434;28;20315;-75
2022/11/07 04:44:39;;;;;;;35.78;20.63;;;;;;;;;;6200656;28;20277;-76
2022/11/07 04:47:39;;;;;;;35.33;20.27;;;;;;;;;;6182247;28;20769;-77
2022/11/07 04:50:40;;;;;;;34.35;18.17;;;;;;;;;;6199717;28;20269;-77
2022/11/07 04:53:40;;;;;;;38.00;20.50;;;;;;;;;;6199922;28;20054;-77
2022/11/07 04:56:41;;;;;;;35.77;21.03;;;;;;;;;;6182604;28;20025;-77
2022/11/07 04:59:41;;;;;;;38.65;22.92;;;;;;;;;;6199268;28;20047;-77
2022/11/07 05:02:41;;;;;;;38.37;24.00;;;;;;;;;;6183182;28;20033;-77
2022/11/07 05:05:41;;;;;;;49.77;25.20;;;;;;;;;;6182715;28;20022;-76
2022/11/07 05:08:42;;;;;;;45.73;25.23;;;;;;;;;;6199118;28;20019;-77
2022/11/07 05:11:42;;;;;;;45.10;23.52;;;;;;;;;;6181318;28;20383;-76
2022/11/07 05:14:43;;;;;;;46.00;27.17;;;;;;;;;;6201523;28;20284;-76
2022/11/07 05:17:43;;;;;;;36.30;21.05;;;;;;;;;;6198038;28;20058;-77
2022/11/07 05:20:43;;;;;;;37.87;22.67;;;;;;;;;;6182084;28;20025;-77
2022/11/07 05:23:43;;;;;;;34.53;20.63;;;;;;;;;;6199233;28;20057;-78
2022/11/07 05:26:43;;;;;;;37.95;21.00;;;;;;;;;;6199318;28;20336;-78
2022/11/07 05:29:44;;;;;;;40.47;21.50;;;;;;;;;;6181579;28;20266;-77
2022/11/07 05:32:44;;;;;;;38.42;20.23;;;;;;;;;;6182202;28;20649;-76
2022/11/07 05:35:44;;;;;;;34.35;20.13;;;;;;;;;;6198138;28;20033;-77
2022/11/07 05:38:46;;;;;;;44.97;21.00;;;;;;;;;;6179761;28;20053;-77
2022/11/07 05:41:46;;;;;;;37.90;20.65;;;;;;;;;;6199345;28;20029;-78
2022/11/07 05:44:46;;;;;;;39.60;20.60;;;;;;;;;;6200077;28;20026;-76
2022/11/07 05:47:46;;;;;;;39.60;21.93;;;;;;;;;;6179081;28;20828;-78
2022/11/07 05:50:46;;;;;;;42.07;21.60;;;;;;;;;;6182262;28;20749;-77
2022/11/07 05:53:47;;;;;;;39.60;19.03;;;;;;;;;;6198669;28;20284;-77
2022/11/07 05:56:47;;;;;;;41.60;21.52;;;;;;;;;;6181540;28;20376;-75
2022/11/07 05:59:47;;;;;;;42.47;23.37;;;;;;;;;;6199449;28;20344;-78
2022/11/07 06:02:59;;;;;;;47.05;23.45;;;;;;;;;;6180021;28;20340;-76
2022/11/07 06:05:59;;;;;;;41.17;21.40;;;;;;;;;;6197333;28;20027;-77
2022/11/07 06:08:59;;;;;;;36.67;20.53;;;;;;;;;;6197801;28;20025;-77
2022/11/07 06:12:02;;;;;;;38.53;21.15;;;;;;;;;;6180640;28;20018;-76
2022/11/07 06:15:03;;;;;;;45.80;24.10;;;;;;;;;;6198840;28;20022;-77
2022/11/07 06:18:04;;;;;;;46.33;23.98;;;;;;;;;;6198059;28;20052;-77
2022/11/07 06:21:04;;;;;;;49.57;28.63;;;;;;;;;;6197621;28;20113;-77
2022/11/07 06:24:04;;;;;;;60.38;32.67;;;;;;;;;;6197006;28;20281;-77
2022/11/07 06:27:05;;;;;;;55.67;32.72;;;;;;;;;;6180431;28;20023;-77
2022/11/07 06:30:05;;;;;;;68.87;37.87;;;;;;;;;;6181597;28;20486;-77
2022/11/07 06:33:07;;;;;;;87.33;47.50;;;;;;;;;;6197180;28;20029;-77
2022/11/07 06:36:08;;;;;;;60.78;36.85;;;;;;;;;;6178996;28;20036;-76
2022/11/07 06:39:08;;;;;;;68.85;37.58;;;;;;;;;;6197378;28;20037;-77
2022/11/07 06:42:09;;;;;;;69.03;34.92;;;;;;;;;;6194716;28;20387;-77
2022/11/07 06:45:10;;;;;;;59.77;33.47;;;;;;;;;;6194129;28;20281;-79
2022/11/07 06:48:11;;;;;;;63.92;35.33;;;;;;;;;;6195051;28;20025;-76
2022/11/07 06:51:11;;;;;;;69.70;36.78;;;;;;;;;;6195980;28;20109;-77
2022/11/07 06:54:12;;;;;;;70.47;38.07;;;;;;;;;;6195916;28;20078;-78
2022/11/07 06:57:12;;;;;;;52.78;29.15;;;;;;;;;;6194580;28;20022;-77
2022/11/07 07:00:13;;;;;;;53.23;29.77;;;;;;;;;;6194866;28;20046;-77
2022/11/07 07:03:13;;;;;;;67.10;34.78;;;;;;;;;;6179297;28;20789;-77
2022/11/07 07:06:14;;;;;;;52.33;29.35;;;;;;;;;;6196892;28;20058;-77
2022/11/07 07:09:15;;;;;;;58.42;28.83;;;;;;;;;;6195783;28;20541;-77
2022/11/07 07:12:15;;;;;;;47.95;27.90;;;;;;;;;;6196188;28;20019;-76
2022/11/07 07:15:15;;;;;;;52.83;29.65;;;;;;;;;;6205142;28;20482;-77
2022/11/07 07:18:15;;;;;;;62.60;34.33;;;;;;;;;;6194973;28;20030;-76
2022/11/07 07:21:15;;;;;;;56.80;30.67;;;;;;;;;;6177548;28;20030;-76
2022/11/07 07:24:16;;;;;;;56.03;31.80;;;;;;;;;;6195009;28;20321;-77
2022/11/07 07:27:16;;;;;;;57.22;31.98;;;;;;;;;;6178981;28;20266;-76
2022/11/07 07:30:16;;;;;;;57.97;30.27;;;;;;;;;;6196659;28;20025;-76
2022/11/07 07:33:17;;;;;;;67.43;41.75;;;;;;;;;;6179477;28;20015;-77
2022/11/07 07:36:17;;;;;;;63.47;37.40;;;;;;;;;;6179265;28;20473;-77
2022/11/07 07:39:18;;;;;;;51.07;28.00;;;;;;;;;;6193065;28;20741;-76
2022/11/07 07:42:18;;;;;;;49.77;28.17;;;;;;;;;;6195393;28;20030;-76
2022/11/07 07:45:18;;;;;;;46.92;22.98;;;;;;;;;;6193492;28;20026;-76
2022/11/07 07:48:18;;;;;;;41.13;22.70;;;;;;;;;;6178631;28;20025;-76
2022/11/07 07:51:19;;;;;;;44.93;25.13;;;;;;;;;;6194753;28;20390;-76
2022/11/07 07:54:19;;;;;;;46.27;22.70;;;;;;;;;;6200626;28;20073;-76
2022/11/07 07:57:19;;;;;;;38.63;22.40;;;;;;;;;;6199495;28;20057;-76
2022/11/07 08:00:19;;;;;;;44.33;26.08;;;;;;;;;;6182813;28;20046;-76
2022/11/07 08:03:19;;;;;;;40.67;22.13;;;;;;;;;;6197880;28;20101;-77
2022/11/07 08:06:20;;;;;;;36.97;21.87;;;;;;;;;;6183354;28;20397;-76
2022/11/07 08:09:20;;;;;;;38.55;20.75;;;;;;;;;;6183711;28;20022;-76
2022/11/07 08:12:20;;;;;;;34.22;18.73;;;;;;;;;;6201039;28;20354;-75
2022/11/07 08:15:20;;;;;;;31.77;14.00;;;;;;;;;;6199731;28;20026;-76
2022/11/07 08:18:21;;;;;;;29.63;14.30;;;;;;;;;;6199824;28;20023;-75
2022/11/07 08:21:21;;;;;;;24.33;13.53;;;;;;;;;;6183209;28;20026;-75
2022/11/07 08:24:21;;;;;;;20.40;12.32;;;;;;;;;;6182514;28;20041;-76
2022/11/07 08:27:21;;;;;;;15.97;9.80;;;;;;;;;;6199014;28;20561;-76
2022/11/07 08:30:22;;;;;;;27.25;10.93;;;;;;;;;;6199814;28;20122;-76
2022/11/07 08:33:22;;;;;;;20.33;9.93;;;;;;;;;;6198667;28;20055;-77
2022/11/07 08:36:22;;;;;;;14.43;7.97;;;;;;;;;;6198159;28;20093;-76
2022/11/07 08:39:22;;;;;;;10.88;6.20;;;;;;;;;;6182393;28;20026;-76
2022/11/07 08:42:22;;;;;;;13.07;6.53;;;;;;;;;;6182524;28;20460;-77
2022/11/07 08:45:23;;;;;;;14.67;5.53;;;;;;;;;;6199410;28;20407;-77
2022/11/07 08:48:23;;;;;;;12.93;5.93;;;;;;;;;;6198838;28;20026;-77
2022/11/07 08:51:23;;;;;;;14.43;5.57;;;;;;;;;;6197191;28;20034;-76
2022/11/07 08:54:25;;;;;;;10.83;4.87;;;;;;;;;;6182712;28;20034;-77
2022/11/07 08:57:25;;;;;;;11.45;5.85;;;;;;;;;;6181790;28;20399;-76
2022/11/07 10:05:54;;;;;;;15.20;7.38;;;;;;;;;;6190466;28;20050;-76
2022/11/07 10:12:57;;;;;;;13.68;6.50;;;;;;;;;;6196739;28;20011;-75
2022/11/07 10:16:16;;;;;;;11.80;5.93;;;;;;;;;;6177890;28;20096;-75
2022/11/07 10:19:28;;;;;;;15.65;7.13;;;;;;;;;;6194749;28;20098;-74
2022/11/07 10:22:49;;;;;;;18.95;8.98;;;;;;;;;;6191820;28;20022;-76
2022/11/07 10:25:56;;;;;;;8.90;4.38;;;;;;;;;;6193855;28;20080;-77
2022/11/07 10:29:00;;;;;;;17.20;8.13;;;;;;;;;;6195985;28;20042;-76
2022/11/07 10:32:23;;;;;;;15.23;6.60;;;;;;;;;;6193776;28;20069;-75
2022/11/07 10:35:31;;;;;;;18.40;7.50;;;;;;;;;;6161518;28;20065;-75
2022/11/07 10:38:33;;;;;;;9.38;5.60;;;;;;;;;;6177512;28;20030;-75
2022/11/07 10:41:34;;;;;;;11.15;7.00;;;;;;;;;;6178126;28;20053;-75
2022/11/07 10:44:34;;;;;;;18.48;9.30;;;;;;;;;;6195801;28;20030;-75
2022/11/07 10:47:34;;;;;;;20.10;10.50;;;;;;;;;;6196272;28;20029;-75
2022/11/07 10:50:37;;;;;;;10.52;6.05;;;;;;;;;;6178861;28;20201;-76
2022/11/07 10:53:41;;;;;;;9.55;5.18;;;;;;;;;;6179042;28;20093;-75
2022/11/07 10:56:46;;;;;;;13.35;6.18;;;;;;;;;;6197758;28;20029;-76
2022/11/07 10:59:52;;;;;;;15.77;6.93;;;;;;;;;;6196874;28;20096;-75
2022/11/07 11:02:53;;;;;;;12.80;6.80;;;;;;;;;;6197366;28;20110;-75
2022/11/07 11:05:54;;;;;;;11.55;4.53;;;;;;;;;;6196472;28;20066;-76
2022/11/07 11:08:54;;;;;;;19.03;8.27;;;;;;;;;;6195794;28;20025;-75
2022/11/07 11:11:55;;;;;;;14.30;6.87;;;;;;;;;;6198020;28;20014;-76
2022/11/07 11:15:03;;;;;;;11.93;5.57;;;;;;;;;;6196834;28;20060;-76
2022/11/07 11:18:05;;;;;;;13.63;6.10;;;;;;;;;;6179389;28;20018;-76
2022/11/07 11:21:05;;;;;;;18.40;8.07;;;;;;;;;;6196946;28;20022;-76
2022/11/07 11:24:20;;;;;;;11.20;6.00;;;;;;;;;;6177963;28;20471;-75
2022/11/07 11:27:22;;;;;;;11.75;6.05;;;;;;;;;;6201361;28;20026;-76
2022/11/07 11:30:22;;;;;;;12.27;6.00;;;;;;;;;;6201729;28;20025;-76
2022/11/07 11:33:25;;;;;;;16.80;5.73;;;;;;;;;;6201155;28;20398;-76
2022/11/07 11:36:28;;;;;;;12.40;5.63;;;;;;;;;;6200837;28;20411;-76
2022/11/07 11:39:38;;;;;;;7.60;4.50;;;;;;;;;;6200969;28;20068;-77
2022/11/07 11:42:38;;;;;;;13.52;6.85;;;;;;;;;;6183940;28;20018;-77
2022/11/07 11:45:38;;;;;;;12.90;5.80;;;;;;;;;;6199130;28;20081;-77
2022/11/07 11:48:38;;;;;;;9.30;5.93;;;;;;;;;;6201658;28;20022;-77
2022/11/07 11:51:43;;;;;;;15.97;6.40;;;;;;;;;;6181248;28;20022;-76
2022/11/07 11:54:43;;;;;;;13.43;6.80;;;;;;;;;;6199798;28;20038;-76
2022/11/07 11:58:03;;;;;;;14.50;6.40;;;;;;;;;;6198397;28;20097;-76
2022/11/07 12:01:11;;;;;;;16.05;6.10;;;;;;;;;;6190784;28;20053;-75
2022/11/07 12:04:14;;;;;;;11.07;5.90;;;;;;;;;;6175377;28;20058;-77
2022/11/07 12:07:14;;;;;;;12.30;6.30;;;;;;;;;;6176488;28;20023;-75
2022/11/07 12:10:23;;;;;;;10.80;5.93;;;;;;;;;;6196048;28;20026;-76
2022/11/07 12:13:33;;;;;;;13.70;5.53;;;;;;;;;;6175277;28;20941;-77
2022/11/07 12:16:51;;;;;;;11.98;5.10;;;;;;;;;;6174792;28;20058;-75
2022/11/07 12:19:57;;;;;;;9.75;5.38;;;;;;;;;;6172684;28;20407;-75
2022/11/07 12:23:26;;;;;;;13.05;6.68;;;;;;;;;;6174283;28;20026;-76
2022/11/07 12:26:30;;;;;;;14.00;6.70;;;;;;;;;;6135686;28;20038;-75
2022/11/07 12:29:30;;;;;;;15.77;6.40;;;;;;;;;;6173177;28;20105;-76
2022/11/07 12:32:35;;;;;;;9.13;5.80;;;;;;;;;;6174768;28;20027;-75
2022/11/07 12:35:35;;;;;;;9.70;6.03;;;;;;;;;;6174628;28;20015;-77
2022/11/07 12:38:54;;;;;;;12.93;5.33;;;;;;;;;;6171229;28;20026;-76
2022/11/07 12:42:00;;;;;;;10.85;6.22;;;;;;;;;;6171661;28;20025;-75
2022/11/07 12:45:15;;;;;;;11.40;5.75;;;;;;;;;;6171117;28;20027;-76
2022/11/07 12:48:34;;;;;;;18.92;7.25;;;;;;;;;;6176354;28;20098;-76
2022/11/07 12:51:37;;;;;;;11.10;5.32;;;;;;;;;;6173419;28;20510;-76
2022/11/07 12:54:37;;;;;;;10.13;5.00;;;;;;;;;;6196445;28;20491;-77
2022/11/07 12:57:39;;;;;;;15.03;6.20;;;;;;;;;;6175412;28;20069;-76
2022/11/07 13:00:39;;;;;;;9.68;5.57;;;;;;;;;;6172809;28;20383;-76
2022/11/07 13:03:58;;;;;;;11.00;5.77;;;;;;;;;;6178764;28;20053;-77
2022/11/07 13:07:03;;;;;;;11.23;5.93;;;;;;;;;;6196134;28;20029;-75
2022/11/07 13:10:06;;;;;;;12.63;5.25;;;;;;;;;;6195656;28;20021;-76
2022/11/07 13:13:14;;;;;;;12.45;5.93;;;;;;;;;;6199061;28;20021;-76
2022/11/07 13:16:21;;;;;;;11.38;5.80;;;;;;;;;;6194595;28;20019;-75
2022/11/07 13:19:26;;;;;;;11.52;5.28;;;;;;;;;;6199966;28;20847;-76
2022/11/07 13:22:31;;;;;;;8.75;5.22;;;;;;;;;;6194404;28;20034;-76
2022/11/07 13:25:32;;;;;;;10.25;5.80;;;;;;;;;;6188199;28;20026;-75
2022/11/07 13:28:35;;;;;;;14.27;7.50;;;;;;;;;;6195910;28;20445;-76
2022/11/07 13:31:37;;;;;;;13.63;5.00;;;;;;;;;;6196958;28;20704;-76
2022/11/07 13:34:38;;;;;;;13.60;6.68;;;;;;;;;;6198986;28;20026;-75
2022/11/07 13:37:40;;;;;;;12.82;5.75;;;;;;;;;;6195774;28;20064;-76
2022/11/07 13:40:49;;;;;;;11.52;5.25;;;;;;;;;;6195961;28;20094;-76
2022/11/07 13:43:58;;;;;;;12.38;5.20;;;;;;;;;;6193572;28;20474;-77
2022/11/07 13:47:01;;;;;;;15.23;6.38;;;;;;;;;;6193225;28;20439;-76
2022/11/07 13:50:06;;;;;;;11.38;6.40;;;;;;;;;;6194556;28;20029;-76
2022/11/07 13:53:16;;;;;;;9.68;4.45;;;;;;;;;;6190248;28;20026;-76
2022/11/07 13:56:27;;;;;;;11.95;6.35;;;;;;;;;;6184841;28;20018;-76
2022/11/07 13:59:30;;;;;;;9.23;4.90;;;;;;;;;;6177415;28;20040;-76
2022/11/07 14:02:31;;;;;;;12.60;6.88;;;;;;;;;;6182547;28;20065;-76
2022/11/07 14:05:36;;;;;;;13.20;5.80;;;;;;;;;;6197964;28;21142;-76
2022/11/07 14:08:39;;;;;;;12.27;5.95;;;;;;;;;;6198134;28;20517;-77
2022/11/07 14:11:40;;;;;;;12.55;5.80;;;;;;;;;;6195222;28;20010;-77
2022/11/07 14:14:40;;;;;;;13.33;6.30;;;;;;;;;;6196281;28;20034;-77
2022/11/07 14:17:40;;;;;;;13.77;7.17;;;;;;;;;;6174202;28;20479;-76
2022/11/07 14:20:48;;;;;;;17.03;6.37;;;;;;;;;;6198073;28;20367;-76
2022/11/07 14:23:48;;;;;;;16.27;8.48;;;;;;;;;;6196206;28;20406;-76
2022/11/07 14:26:58;;;;;;;21.53;8.60;;;;;;;;;;6175718;28;20033;-76
2022/11/07 14:29:59;;;;;;;20.50;8.77;;;;;;;;;;6177045;28;20556;-76
2022/11/07 14:33:01;;;;;;;15.93;8.43;;;;;;;;;;6194934;28;20019;-75
2022/11/07 14:36:05;;;;;;;13.23;6.63;;;;;;;;;;6194821;28;20065;-76
2022/11/07 14:39:06;;;;;;;14.27;8.80;;;;;;;;;;6177338;28;20482;-76
2022/11/07 14:42:07;;;;;;;13.95;7.20;;;;;;;;;;6195119;28;20041;-76
2022/11/07 14:45:10;;;;;;;14.23;8.40;;;;;;;;;;6194978;28;20033;-76
2022/11/07 14:48:12;;;;;;;11.05;7.95;;;;;;;;;;6193187;28;20073;-75
2022/11/07 14:51:13;;;;;;;15.07;8.55;;;;;;;;;;6195591;28;20027;-75
2022/11/07 14:54:18;;;;;;;15.00;7.28;;;;;;;;;;6195266;28;20108;-78
2022/11/07 14:57:18;;;;;;;14.57;8.63;;;;;;;;;;6194399;28;20383;-76
2022/11/07 15:00:19;;;;;;;13.47;7.63;;;;;;;;;;6180125;28;20298;-76
2022/11/07 15:03:21;;;;;;;16.75;8.68;;;;;;;;;;6197466;28;20560;-76
2022/11/07 15:06:28;;;;;;;13.93;8.07;;;;;;;;;;6196333;28;20022;-76
2022/11/07 15:09:32;;;;;;;16.63;8.52;;;;;;;;;;6196959;28;20025;-77
2022/11/07 15:12:37;;;;;;;21.23;9.30;;;;;;;;;;6198173;28;20014;-76
2022/11/07 15:15:37;;;;;;;17.67;8.60;;;;;;;;;;6180842;28;20031;-75
2022/11/07 15:18:39;;;;;;;18.43;10.10;;;;;;;;;;6197740;28;20025;-76
2022/11/07 15:21:49;;;;;;;21.75;10.70;;;;;;;;;;6195903;28;20022;-79
2022/11/07 15:24:51;;;;;;;23.25;10.40;;;;;;;;;;6177717;28;20023;-75
2022/11/07 15:27:52;;;;;;;17.25;9.48;;;;;;;;;;6178531;28;20027;-76
2022/11/07 15:30:54;;;;;;;30.42;16.35;;;;;;;;;;6195945;28;20017;-76
2022/11/07 15:33:54;;;;;;;;;;;;;;;;;;6197136;28;20027;-77
2022/11/07 15:36:54;;;;;;;17.67;11.60;;;;;;;;;;6177292;28;19917;-77
2022/11/07 15:39:54;;;;;;;22.25;13.40;;;;;;;;;;6178578;28;20049;-77
2022/11/07 15:42:55;;;;;;;20.10;11.00;;;;;;;;;;6195349;28;20481;-75
2022/11/07 15:45:55;;;;;;;21.00;12.18;;;;;;;;;;6177441;28;20077;-76
2022/11/07 15:48:56;;;;;;;24.57;11.97;;;;;;;;;;6195006;28;20106;-76
2022/11/07 15:51:56;;;;;;;24.53;14.13;;;;;;;;;;6194421;28;20042;-76
2022/11/07 15:54:57;;;;;;;24.40;14.17;;;;;;;;;;6194057;28;20113;-77
2022/11/07 15:57:58;;;;;;;28.60;14.80;;;;;;;;;;6194229;28;20022;-76
2022/11/07 16:00:58;;;;;;;22.77;12.40;;;;;;;;;;6177739;28;20029;-77
2022/11/07 16:03:59;;;;;;;35.10;15.43;;;;;;;;;;6194423;28;20391;-75
2022/11/07 16:06:59;;;;;;;27.23;12.40;;;;;;;;;;6195990;28;20065;-76
2022/11/07 16:10:00;;;;;;;29.27;15.40;;;;;;;;;;6178711;28;20089;-76
2022/11/07 16:13:00;;;;;;;27.77;13.90;;;;;;;;;;6180802;28;20022;-76
2022/11/07 16:16:01;;;;;;;25.58;15.23;;;;;;;;;;6181334;28;20271;-76
2022/11/07 16:19:01;;;;;;;30.30;16.37;;;;;;;;;;6200696;28;20106;-76
2022/11/07 16:22:01;;;;;;;32.13;16.95;;;;;;;;;;6201138;28;20022;-76
2022/11/07 16:25:01;;;;;;;67.73;40.77;;;;;;;;;;6201015;28;20383;-75
2022/11/07 16:28:02;;;;;;;62.58;46.17;;;;;;;;;;6182655;28;20015;-76
2022/11/07 16:31:02;;;;;;;43.00;23.50;;;;;;;;;;6201485;28;20030;-76
2022/11/07 16:34:03;;;;;;;36.08;17.40;;;;;;;;;;6198362;28;20019;-76
2022/11/07 16:37:03;;;;;;;34.47;16.73;;;;;;;;;;6181196;28;20797;-76
2022/11/07 16:40:05;;;;;;;50.20;22.33;;;;;;;;;;6197395;28;20022;-77
2022/11/07 16:43:05;;;;;;;77.25;35.00;;;;;;;;;;6165899;28;20269;-76
2022/11/07 16:46:11;;;;;;;85.97;42.83;;;;;;;;;;6179527;28;20033;-79
2022/11/07 16:49:12;;;;;;;61.05;29.27;;;;;;;;;;6179647;28;20308;-77
2022/11/07 16:52:13;;;;;;;39.88;20.23;;;;;;;;;;6182197;28;20037;-76
2022/11/07 16:55:14;;;;;;;57.37;34.13;;;;;;;;;;6200895;28;20030;-77
2022/11/07 16:58:35;;;;;;;31.80;20.47;;;;;;;;;;6192905;28;20479;-76
2022/11/07 17:01:35;;;;;;;33.45;17.48;;;;;;;;;;6193118;28;20049;-77
2022/11/07 17:04:35;;;;;;;35.08;19.45;;;;;;;;;;6171487;28;20047;-77
2022/11/07 17:07:36;;;;;;;34.60;19.63;;;;;;;;;;6174111;28;20023;-76
2022/11/07 17:10:36;;;;;;;44.93;19.60;;;;;;;;;;6172460;28;20023;-76
2022/11/07 17:13:36;;;;;;;48.80;23.98;;;;;;;;;;6173687;28;20034;-76
2022/11/07 17:16:36;;;;;;;46.83;24.83;;;;;;;;;;6173710;28;20353;-77
2022/11/07 17:19:37;;;;;;;50.72;28.15;;;;;;;;;;6173218;28;20898;-77
2022/11/07 17:22:37;;;;;;;47.10;25.40;;;;;;;;;;6172692;28;20097;-76
2022/11/07 17:25:37;;;;;;;59.58;36.72;;;;;;;;;;6173024;28;20027;-76
2022/11/07 17:28:37;;;;;;;50.10;29.50;;;;;;;;;;6172709;28;20556;-75
2022/11/07 17:31:38;;;;;;;39.66;26.72;;;;;;;;;;6173752;28;20370;-76
2022/11/07 17:34:38;;;;;;;42.90;28.50;;;;;;;;;;6172616;28;20467;-76
2022/11/07 17:37:38;;;;;;;51.03;33.33;;;;;;;;;;6173554;28;20462;-75
2022/11/07 17:40:38;;;;;;;99.10;52.88;;;;;;;;;;6172231;28;20026;-77
2022/11/07 17:43:38;;;;;;;81.93;46.47;;;;;;;;;;6171356;28;20074;-76
2022/11/07 17:46:40;;;;;;;54.65;32.47;;;;;;;;;;6170662;28;20053;-75
2022/11/07 17:49:41;;;;;;;;;;;;;;;;;;6171613;28;20029;-76
2022/11/07 17:52:41;;;;;;;70.30;35.47;;;;;;;;;;6170919;28;19921;-76
2022/11/07 17:55:41;;;;;;;78.07;36.20;;;;;;;;;;6172557;28;20513;-76
2022/11/07 17:58:42;;;;;;;77.97;36.55;;;;;;;;;;6172068;28;20466;-76
2022/11/07 18:01:42;;;;;;;83.63;41.13;;;;;;;;;;6173186;28;20262;-76
2022/11/07 18:04:43;;;;;;;77.47;33.93;;;;;;;;;;6185164;28;20054;-76
2022/11/07 18:07:45;;;;;;;66.37;31.30;;;;;;;;;;6196679;28;20022;-81
2022/11/07 18:10:45;;;;;;;59.80;28.55;;;;;;;;;;6198030;28;20022;-77
2022/11/07 18:13:45;;;;;;;48.45;25.38;;;;;;;;;;6178451;28;20042;-77
2022/11/07 18:16:45;;;;;;;54.92;28.17;;;;;;;;;;6195802;28;20276;-77
2022/11/07 18:19:46;;;;;;;51.13;30.55;;;;;;;;;;6198158;28;20084;-76
2022/11/07 18:22:46;;;;;;;48.70;28.17;;;;;;;;;;6180391;28;20089;-76
2022/11/07 18:25:46;;;;;;;51.70;27.47;;;;;;;;;;6193704;28;20035;-76
2022/11/07 18:28:48;;;;;;;48.58;26.77;;;;;;;;;;6180267;28;20025;-77
2022/11/07 18:31:49;;;;;;;50.20;26.75;;;;;;;;;;6172846;28;20029;-77
2022/11/07 18:34:49;;;;;;;52.70;29.40;;;;;;;;;;6176868;28;20038;-76
2022/11/07 18:37:50;;;;;;;59.78;32.80;;;;;;;;;;6192315;28;20424;-76
2022/11/07 18:40:57;;;;;;;67.47;38.70;;;;;;;;;;6197657;28;20028;-76
2022/11/07 18:43:58;;;;;;;82.18;43.42;;;;;;;;;;6180278;28;20037;-74
2022/11/07 18:46:58;;;;;;;67.23;38.67;;;;;;;;;;6195973;28;20101;-76
2022/11/07 18:49:58;;;;;;;58.50;32.35;;;;;;;;;;6179697;28;20393;-76
2022/11/07 18:52:58;;;;;;;48.53;27.33;;;;;;;;;;6196778;28;20289;-76
2022/11/07 18:56:03;;;;;;;35.75;19.83;;;;;;;;;;6176233;28;20125;-76
2022/11/07 18:59:03;;;;;;;44.75;26.77;;;;;;;;;;6196458;28;20261;-76
2022/11/07 19:02:03;;;;;;;52.43;29.00;;;;;;;;;;6196133;28;20045;-76